createdAt,value
2023-02-09T00:02:18.166Z,-5.31
2023-02-09T00:04:47.177Z,-5.30
2023-02-09T00:07:15.875Z,-5.32
2023-02-09T00:09:45.569Z,-5.34
2023-02-09T00:12:32.643Z,-5.36
2023-02-09T00:15:00.722Z,-5.40
2023-02-09T00:17:29.479Z,-5.44
2023-02-09T00:19:57.957Z,-5.48
2023-02-09T00:22:26.162Z,-5.51
2023-02-09T00:24:56.452Z,-5.55
2023-02-09T00:27:25.480Z,-5.54
2023-02-09T00:38:11.604Z,-5.56
2023-02-09T00:40:39.869Z,-5.60
2023-02-09T00:43:08.078Z,-5.63
2023-02-09T00:45:36.701Z,-5.70
2023-02-09T00:48:05.766Z,-5.79
2023-02-09T00:50:34.796Z,-5.87
2023-02-09T00:53:03.648Z,-5.94
2023-02-09T00:55:31.755Z,-6.01
2023-02-09T00:57:59.841Z,-6.07
2023-02-09T01:00:28.302Z,-6.11
2023-02-09T01:02:58.222Z,-6.11
2023-02-09T01:05:26.300Z,-6.11
2023-02-09T01:07:54.975Z,-6.10
2023-02-09T01:10:23.747Z,-6.09
2023-02-09T01:12:53.145Z,-6.09
2023-02-09T01:15:21.179Z,-6.07
2023-02-09T01:17:50.246Z,-6.05
2023-02-09T01:20:19.275Z,-6.02
2023-02-09T01:22:47.701Z,-6.00
2023-02-09T01:25:15.705Z,-5.97
2023-02-09T01:27:43.896Z,-5.95
2023-02-09T01:30:13.191Z,-5.96
2023-02-09T01:32:41.883Z,-5.98
2023-02-09T01:35:10.566Z,-6.01
2023-02-09T01:37:38.624Z,-6.01
2023-02-09T01:40:07.857Z,-6.02
2023-02-09T01:42:36.327Z,-6.02
2023-02-09T01:45:15.081Z,-6.02
2023-02-09T01:47:50.633Z,-6.04
2023-02-09T01:50:20.301Z,-6.06
2023-02-09T01:52:49.208Z,-6.07
2023-02-09T01:55:19.539Z,-6.07
2023-02-09T01:57:54.588Z,-6.05
2023-02-09T02:00:22.890Z,-6.02
2023-02-09T02:03:01.796Z,-6.01
2023-02-09T02:05:29.947Z,-5.98
2023-02-09T02:08:02.120Z,-5.97
2023-02-09T02:10:30.742Z,-5.96
2023-02-09T02:13:00.632Z,-5.94
2023-02-09T02:15:50.759Z,-5.92
2023-02-09T02:18:28.044Z,-5.90
2023-02-09T02:21:13.551Z,-5.89
2023-02-09T02:24:07.136Z,-5.88
2023-02-09T02:26:43.995Z,-5.86
2023-02-09T02:29:34.282Z,-5.85
2023-02-09T02:32:24.365Z,-5.84
2023-02-09T02:35:08.552Z,-5.81
2023-02-09T02:37:51.768Z,-5.80
2023-02-09T02:40:47.326Z,-5.79
2023-02-09T02:43:47.622Z,-5.78
2023-02-09T02:46:28.690Z,-5.79
2023-02-09T02:49:01.212Z,-5.79
2023-02-09T02:51:35.420Z,-5.79
2023-02-09T02:54:06.309Z,-5.77
2023-02-09T02:56:39.995Z,-5.77
2023-02-09T02:59:10.693Z,-5.76
2023-02-09T03:01:45.025Z,-5.74
2023-02-09T03:04:13.129Z,-5.74
2023-02-09T03:06:41.507Z,-5.72
2023-02-09T03:09:09.616Z,-5.69
2023-02-09T03:11:52.250Z,-5.66
2023-02-09T03:14:28.455Z,-5.63
2023-02-09T03:17:11.657Z,-5.60
2023-02-09T03:20:14.044Z,-5.57
2023-02-09T03:22:46.579Z,-5.53
2023-02-09T03:25:18.089Z,-5.53
2023-02-09T03:27:59.536Z,-5.52
2023-02-09T03:30:28.425Z,-5.49
2023-02-09T03:32:57.182Z,-5.46
2023-02-09T03:35:27.884Z,-5.47
2023-02-09T03:37:56.104Z,-5.46
2023-02-09T03:40:24.034Z,-5.44
2023-02-09T03:42:52.089Z,-5.41
2023-02-09T03:45:20.030Z,-5.38
2023-02-09T03:47:49.151Z,-5.35
2023-02-09T03:50:17.923Z,-5.33
2023-02-09T03:52:45.881Z,-5.30
2023-02-09T03:55:14.098Z,-5.27
2023-02-09T03:57:42.212Z,-5.26
2023-02-09T04:00:11.013Z,-5.27
2023-02-09T04:02:43.939Z,-5.29
2023-02-09T04:05:12.099Z,-5.31
2023-02-09T04:07:42.083Z,-5.30
2023-02-09T04:10:10.393Z,-5.27
2023-02-09T04:12:38.459Z,-5.24
2023-02-09T04:15:09.284Z,-5.20
2023-02-09T04:17:37.421Z,-5.16
2023-02-09T04:20:05.746Z,-5.10
2023-02-09T04:22:34.418Z,-5.05
2023-02-09T04:25:02.894Z,-5.02
2023-02-09T04:27:32.509Z,-5.00
2023-02-09T04:30:00.624Z,-4.95
2023-02-09T04:32:28.674Z,-4.92
2023-02-09T04:34:58.183Z,-4.92
2023-02-09T04:37:26.157Z,-4.90
2023-02-09T04:39:54.078Z,-4.93
2023-02-09T04:42:21.998Z,-4.97
2023-02-09T04:44:49.913Z,-5.04
2023-02-09T04:47:17.800Z,-5.12
2023-02-09T04:49:46.021Z,-5.21
2023-02-09T04:52:14.149Z,-5.30
2023-02-09T04:54:42.110Z,-5.39
2023-02-09T04:57:28.808Z,-5.45
2023-02-09T04:59:57.037Z,-5.51
2023-02-09T05:02:24.974Z,-5.55
2023-02-09T05:04:53.611Z,-5.61
2023-02-09T05:07:23.224Z,-5.63
2023-02-09T05:09:51.758Z,-5.66
2023-02-09T05:12:21.517Z,-5.70
2023-02-09T05:14:49.597Z,-5.73
2023-02-09T05:17:21.251Z,-5.73
2023-02-09T05:19:49.630Z,-5.75
2023-02-09T05:22:17.568Z,-5.76
2023-02-09T05:24:46.179Z,-5.77
2023-02-09T05:27:14.073Z,-5.75
2023-02-09T05:29:42.133Z,-5.73
2023-02-09T05:32:10.263Z,-5.67
2023-02-09T05:34:39.647Z,-5.62
2023-02-09T05:37:07.628Z,-5.56
2023-02-09T05:39:35.976Z,-5.50
2023-02-09T05:42:16.385Z,-5.46
2023-02-09T05:44:45.558Z,-5.39
2023-02-09T05:47:14.576Z,-5.34
2023-02-09T05:49:42.752Z,-5.29
2023-02-09T05:52:13.703Z,-5.24
2023-02-09T05:54:42.270Z,-5.18
2023-02-09T05:57:10.506Z,-5.13
2023-02-09T05:59:38.753Z,-5.05
2023-02-09T06:02:07.244Z,-5.01
2023-02-09T06:04:35.519Z,-5.02
2023-02-09T06:07:04.413Z,-5.06
2023-02-09T06:09:32.597Z,-5.11
2023-02-09T06:12:02.105Z,-5.17
2023-02-09T06:14:30.780Z,-5.22
2023-02-09T06:17:02.657Z,-5.29
2023-02-09T06:19:31.512Z,-5.35
2023-02-09T06:21:59.524Z,-5.39
2023-02-09T06:24:28.847Z,-5.43
2023-02-09T06:26:56.815Z,-5.46
2023-02-09T06:29:24.883Z,-5.46
2023-02-09T06:31:53.026Z,-5.46
2023-02-09T06:34:21.052Z,-5.45
2023-02-09T06:36:49.130Z,-5.45
2023-02-09T06:39:17.064Z,-5.45
2023-02-09T06:41:45.087Z,-5.44
2023-02-09T06:44:13.713Z,-5.43
2023-02-09T06:46:41.776Z,-5.40
2023-02-09T06:49:10.190Z,-5.37
2023-02-09T06:51:38.843Z,-5.34
2023-02-09T06:54:07.020Z,-5.30
2023-02-09T06:56:35.129Z,-5.29
2023-02-09T06:59:03.412Z,-5.29
2023-02-09T07:01:31.505Z,-5.25
2023-02-09T07:03:59.771Z,-5.20
2023-02-09T07:06:28.065Z,-5.16
2023-02-09T07:08:57.420Z,-5.12
2023-02-09T07:11:25.775Z,-5.07
2023-02-09T07:13:54.513Z,-4.98
2023-02-09T07:16:22.812Z,-4.87
2023-02-09T07:18:50.947Z,-4.76
2023-02-09T07:21:21.401Z,-4.68
2023-02-09T07:23:50.251Z,-4.60
2023-02-09T07:26:18.415Z,-4.53
2023-02-09T07:28:47.112Z,-4.48
2023-02-09T07:31:16.125Z,-4.45
2023-02-09T07:33:48.382Z,-4.42
2023-02-09T07:36:16.731Z,-4.36
2023-02-09T07:38:44.882Z,-4.30
2023-02-09T07:41:15.888Z,-4.24
2023-02-09T07:43:44.104Z,-4.17
2023-02-09T07:46:13.572Z,-4.12
2023-02-09T07:48:41.610Z,-4.09
2023-02-09T07:51:16.921Z,-4.04
2023-02-09T07:53:45.798Z,-4.00
2023-02-09T07:56:13.782Z,-3.96
2023-02-09T07:58:41.890Z,-3.91
2023-02-09T08:01:11.214Z,-3.87
2023-02-09T08:03:40.802Z,-3.85
2023-02-09T08:06:39.816Z,-3.80
2023-02-09T08:09:10.692Z,-3.74
2023-02-09T08:11:48.727Z,-3.69
2023-02-09T08:14:28.431Z,-3.66
2023-02-09T08:17:18.183Z,-3.61
2023-02-09T08:20:14.454Z,-3.54
2023-02-09T08:22:45.519Z,-3.44
2023-02-09T08:25:19.397Z,-3.35
2023-02-09T08:27:47.804Z,-3.24
2023-02-09T08:30:20.144Z,-3.13
2023-02-09T08:32:50.145Z,-3.03
2023-02-09T08:35:18.260Z,-2.94
2023-02-09T08:37:46.430Z,-2.88
2023-02-09T08:40:15.299Z,-2.83
2023-02-09T08:42:43.417Z,-2.79
2023-02-09T08:45:12.500Z,-2.76
2023-02-09T08:47:41.448Z,-2.70
2023-02-09T08:50:10.975Z,-2.65
2023-02-09T08:52:39.810Z,-2.58
2023-02-09T08:55:09.078Z,-2.53
2023-02-09T08:57:44.130Z,-2.49
2023-02-09T09:00:14.988Z,-2.46
2023-02-09T09:02:43.623Z,-2.41
2023-02-09T09:05:12.907Z,-2.36
2023-02-09T09:07:41.272Z,-2.30
2023-02-09T09:10:14.017Z,-2.24
2023-02-09T09:12:43.648Z,-2.17
2023-02-09T09:15:11.794Z,-2.09
2023-02-09T09:17:40.592Z,-2.01
2023-02-09T09:20:09.406Z,-1.95
2023-02-09T09:22:37.651Z,-1.89
2023-02-09T09:25:07.204Z,-1.82
2023-02-09T09:27:36.187Z,-1.76
2023-02-09T09:30:04.796Z,-1.68
2023-02-09T09:32:34.571Z,-1.60
2023-02-09T09:35:03.650Z,-1.53
2023-02-09T09:37:32.745Z,-1.45
2023-02-09T09:40:01.964Z,-1.38
2023-02-09T09:42:40.836Z,-1.29
2023-02-09T09:45:14.793Z,-1.20
2023-02-09T09:47:45.573Z,-1.11
2023-02-09T09:50:36.995Z,-1.03
2023-02-09T09:53:26.585Z,-0.95
2023-02-09T09:56:01.485Z,-0.85
2023-02-09T09:58:34.572Z,-0.79
2023-02-09T10:01:07.601Z,-0.74
2023-02-09T10:03:38.613Z,-0.71
2023-02-09T10:06:33.512Z,-0.66
2023-02-09T10:09:06.461Z,-0.60
2023-02-09T10:11:44.572Z,-0.54
2023-02-09T10:14:16.094Z,-0.47
2023-02-09T10:16:45.888Z,-0.42
2023-02-09T10:19:42.598Z,-0.40
2023-02-09T10:22:14.139Z,-0.38
2023-02-09T10:24:46.618Z,-0.33
2023-02-09T10:27:29.451Z,-0.29
2023-02-09T10:30:20.119Z,-0.22
2023-02-09T10:32:50.025Z,-0.16
2023-02-09T10:35:35.612Z,-0.08
2023-02-09T10:38:13.169Z,-0.01
2023-02-09T10:40:44.675Z,0.06
2023-02-09T10:43:28.015Z,0.15
2023-02-09T10:54:08.298Z,0.33
2023-02-09T10:56:42.687Z,0.35
2023-02-09T10:59:22.515Z,0.34
2023-02-09T11:01:56.375Z,0.31
2023-02-09T11:04:26.311Z,0.35
2023-02-09T11:07:01.805Z,0.41
2023-02-09T11:09:33.224Z,0.47
2023-02-09T11:12:01.638Z,0.52
2023-02-09T11:14:34.400Z,0.58
2023-02-09T11:17:37.474Z,0.66
2023-02-09T11:20:19.974Z,0.75
2023-02-09T11:23:04.634Z,0.83
2023-02-09T11:25:42.261Z,0.90
2023-02-09T11:28:45.297Z,0.96
2023-02-09T11:31:48.682Z,1.00
2023-02-09T11:34:56.031Z,0.98
2023-02-09T11:37:48.903Z,0.98
2023-02-09T11:40:43.267Z,1.01
2023-02-09T11:43:11.289Z,1.04
2023-02-09T11:45:46.931Z,1.08
2023-02-09T11:48:20.842Z,1.09
2023-02-09T11:51:16.504Z,1.13
2023-02-09T11:53:59.254Z,1.17
2023-02-09T11:56:28.447Z,1.20
2023-02-09T11:59:23.085Z,1.25
2023-02-09T12:02:02.224Z,1.27
2023-02-09T12:04:33.011Z,1.29
2023-02-09T12:07:03.255Z,1.33
2023-02-09T12:09:45.910Z,1.36
2023-02-09T12:12:37.712Z,1.40
2023-02-09T12:15:12.199Z,1.47
2023-02-09T12:18:21.743Z,1.50
2023-02-09T12:20:55.860Z,1.50
2023-02-09T12:23:37.720Z,1.48
2023-02-09T12:26:17.096Z,1.46
2023-02-09T12:29:07.920Z,1.43
2023-02-09T12:32:22.360Z,1.43
2023-02-09T12:34:52.540Z,1.46
2023-02-09T12:37:28.640Z,1.49
2023-02-09T12:40:07.087Z,1.49
2023-02-09T12:42:52.194Z,1.48
2023-02-09T12:45:33.964Z,1.45
2023-02-09T12:48:09.664Z,1.42
2023-02-09T12:50:51.808Z,1.40
2023-02-09T12:53:23.290Z,1.38
2023-02-09T12:56:12.648Z,1.40
2023-02-09T12:58:43.671Z,1.44
2023-02-09T13:01:13.937Z,1.48
2023-02-09T13:04:01.287Z,1.49
2023-02-09T13:06:47.019Z,1.50
2023-02-09T13:09:25.807Z,1.53
2023-02-09T13:12:10.002Z,1.58
2023-02-09T13:14:38.570Z,1.64
2023-02-09T13:17:20.070Z,1.71
2023-02-09T13:20:18.495Z,1.74
2023-02-09T13:22:53.508Z,1.77
2023-02-09T13:25:38.254Z,1.77
2023-02-09T13:28:18.094Z,1.75
2023-02-09T13:30:46.431Z,1.77
2023-02-09T13:33:18.186Z,1.84
2023-02-09T13:35:52.323Z,1.87
2023-02-09T13:38:21.659Z,1.87
2023-02-09T13:40:50.822Z,1.88
2023-02-09T13:43:30.496Z,1.86
2023-02-09T13:45:59.735Z,1.85
2023-02-09T13:48:36.710Z,1.83
2023-02-09T13:51:25.066Z,1.81
2023-02-09T13:54:00.852Z,1.80
2023-02-09T13:56:31.312Z,1.77
2023-02-09T13:58:59.748Z,1.73
2023-02-09T14:01:32.535Z,1.69
2023-02-09T14:04:03.988Z,1.64
2023-02-09T14:06:47.768Z,1.58
2023-02-09T14:09:31.327Z,1.50
2023-02-09T14:12:03.210Z,1.44
2023-02-09T14:14:54.498Z,1.41
2023-02-09T14:17:28.003Z,1.37
2023-02-09T14:19:57.465Z,1.33
2023-02-09T14:22:32.701Z,1.27
2023-02-09T14:25:00.944Z,1.22
2023-02-09T14:27:32.959Z,1.14
2023-02-09T14:30:01.425Z,1.07
2023-02-09T14:32:34.867Z,1.00
2023-02-09T14:35:25.454Z,0.93
2023-02-09T14:37:56.089Z,0.83
2023-02-09T14:40:28.273Z,0.76
2023-02-09T14:43:09.432Z,0.69
2023-02-09T14:45:40.293Z,0.62
2023-02-09T14:48:37.893Z,0.56
2023-02-09T14:51:12.960Z,0.49
2023-02-09T14:53:42.819Z,0.43
2023-02-09T14:56:28.301Z,0.38
2023-02-09T14:58:58.923Z,0.34
2023-02-09T15:01:27.112Z,0.29
2023-02-09T15:03:55.910Z,0.26
2023-02-09T15:06:27.067Z,0.23
2023-02-09T15:08:55.268Z,0.20
2023-02-09T15:11:43.075Z,0.16
2023-02-09T15:14:11.733Z,0.11
2023-02-09T15:16:39.846Z,0.06
2023-02-09T15:19:13.466Z,0.02
2023-02-09T15:21:41.522Z,-0.01
2023-02-09T15:24:09.475Z,-0.05
2023-02-09T15:26:37.601Z,-0.08
2023-02-09T15:29:11.050Z,-0.10
2023-02-09T15:31:40.710Z,-0.12
2023-02-09T15:34:11.307Z,-0.14
2023-02-09T15:36:39.478Z,-0.15
2023-02-09T15:39:16.384Z,-0.18
2023-02-09T15:42:04.018Z,-0.19
2023-02-09T15:44:51.511Z,-0.22
2023-02-09T15:47:38.246Z,-0.25
2023-02-09T15:50:06.572Z,-0.29
2023-02-09T15:52:34.904Z,-0.30
2023-02-09T15:55:02.883Z,-0.32
2023-02-09T15:57:31.707Z,-0.33
2023-02-09T15:59:59.979Z,-0.34
2023-02-09T16:02:28.189Z,-0.35
2023-02-09T16:04:56.659Z,-0.36
2023-02-09T16:07:25.949Z,-0.37
2023-02-09T16:09:54.035Z,-0.38
2023-02-09T16:12:25.794Z,-0.40
2023-02-09T16:14:54.107Z,-0.43
2023-02-09T16:17:22.142Z,-0.45
2023-02-09T16:19:50.126Z,-0.48
2023-02-09T16:22:22.652Z,-0.51
2023-02-09T16:24:50.664Z,-0.55
2023-02-09T16:27:28.329Z,-0.58
2023-02-09T16:29:57.439Z,-0.60
2023-02-09T16:32:26.858Z,-0.62
2023-02-09T16:34:57.725Z,-0.64
2023-02-09T16:37:30.833Z,-0.66
2023-02-09T16:40:00.962Z,-0.67
2023-02-09T16:42:29.670Z,-0.69
2023-02-09T16:44:57.878Z,-0.71
2023-02-09T16:47:27.497Z,-0.72
2023-02-09T16:49:58.836Z,-0.73
2023-02-09T16:52:27.084Z,-0.75
2023-02-09T16:54:56.700Z,-0.76
2023-02-09T16:57:24.939Z,-0.76
2023-02-09T16:59:53.112Z,-0.78
2023-02-09T17:02:40.801Z,-0.80
2023-02-09T17:05:17.499Z,-0.82
2023-02-09T17:07:54.501Z,-0.83
2023-02-09T17:10:26.313Z,-0.85
2023-02-09T17:12:54.470Z,-0.88
2023-02-09T17:15:31.176Z,-0.90
2023-02-09T17:18:04.219Z,-0.89
2023-02-09T17:20:37.263Z,-0.91
2023-02-09T17:23:05.633Z,-0.92
2023-02-09T17:25:33.807Z,-0.95
2023-02-09T17:28:02.038Z,-0.97
2023-02-09T17:30:31.378Z,-0.98
2023-02-09T17:33:01.410Z,-1.00
2023-02-09T17:35:58.001Z,-1.02
2023-02-09T17:38:25.446Z,-1.05
2023-02-09T17:40:54.873Z,-1.06
2023-02-09T17:43:23.221Z,-1.07
2023-02-09T17:45:51.466Z,-1.08
2023-02-09T17:48:23.137Z,-1.08
2023-02-09T17:50:52.908Z,-1.09
2023-02-09T17:53:25.241Z,-1.09
2023-02-09T17:55:56.335Z,-1.09
2023-02-09T17:58:25.004Z,-1.10
2023-02-09T18:00:54.283Z,-1.10
2023-02-09T18:03:23.797Z,-1.13
2023-02-09T18:05:54.144Z,-1.16
2023-02-09T18:08:22.485Z,-1.19
2023-02-09T18:10:50.585Z,-1.21
2023-02-09T18:13:20.643Z,-1.22
2023-02-09T18:15:48.995Z,-1.25
2023-02-09T18:18:17.140Z,-1.26
2023-02-09T18:20:45.348Z,-1.28
2023-02-09T18:23:13.797Z,-1.31
2023-02-09T18:25:41.980Z,-1.34
2023-02-09T18:28:10.181Z,-1.36
2023-02-09T18:30:38.899Z,-1.39
2023-02-09T18:33:07.723Z,-1.44
2023-02-09T18:35:40.757Z,-1.46
2023-02-09T18:38:09.692Z,-1.48
2023-02-09T18:40:39.189Z,-1.50
2023-02-09T18:43:08.108Z,-1.51
2023-02-09T18:45:36.597Z,-1.55
2023-02-09T18:48:07.369Z,-1.57
2023-02-09T18:50:35.614Z,-1.60
2023-02-09T18:53:03.885Z,-1.62
2023-02-09T18:55:32.829Z,-1.63
2023-02-09T18:58:02.711Z,-1.66
2023-02-09T19:00:32.067Z,-1.67
2023-02-09T19:03:04.099Z,-1.66
2023-02-09T19:05:36.004Z,-1.67
2023-02-09T19:08:07.530Z,-1.68
2023-02-09T19:10:36.296Z,-1.70
2023-02-09T19:13:04.682Z,-1.73
2023-02-09T19:15:34.273Z,-1.76
2023-02-09T19:18:02.505Z,-1.79
2023-02-09T19:20:31.203Z,-1.82
2023-02-09T19:22:59.295Z,-1.83
2023-02-09T19:25:28.614Z,-1.86
2023-02-09T19:27:58.197Z,-1.91
2023-02-09T19:30:28.637Z,-1.95
2023-02-09T19:32:57.877Z,-1.99
2023-02-09T19:35:25.987Z,-2.05
2023-02-09T19:37:54.782Z,-2.09
2023-02-09T19:40:41.335Z,-2.12
2023-02-09T19:43:09.502Z,-2.16
2023-02-09T19:45:38.673Z,-2.20
2023-02-09T19:48:07.147Z,-2.24
2023-02-09T19:50:39.069Z,-2.27
2023-02-09T19:53:07.631Z,-2.30
2023-02-09T19:55:36.032Z,-2.33
2023-02-09T19:58:04.099Z,-2.37
2023-02-09T20:00:32.538Z,-2.41
2023-02-09T20:03:01.960Z,-2.44
2023-02-09T20:05:30.167Z,-2.46
2023-02-09T20:07:58.519Z,-2.48
2023-02-09T20:10:27.482Z,-2.51
2023-02-09T20:12:55.756Z,-2.53
2023-02-09T20:15:24.277Z,-2.56
2023-02-09T20:17:53.084Z,-2.59
2023-02-09T20:20:21.460Z,-2.62
2023-02-09T20:22:50.463Z,-2.65
2023-02-09T20:25:19.028Z,-2.68
2023-02-09T20:27:49.364Z,-2.71
2023-02-09T20:30:17.529Z,-2.75
2023-02-09T20:32:47.150Z,-2.76
2023-02-09T20:35:16.585Z,-2.78
2023-02-09T20:37:46.870Z,-2.80
2023-02-09T20:40:16.732Z,-2.83
2023-02-09T20:43:04.432Z,-2.86
2023-02-09T20:45:51.318Z,-2.89
2023-02-09T20:48:19.755Z,-2.91
2023-02-09T20:50:49.688Z,-2.93
2023-02-09T20:53:17.970Z,-2.95
2023-02-09T20:55:46.469Z,-2.97
2023-02-09T20:58:14.668Z,-2.99
2023-02-09T21:00:43.526Z,-3.03
2023-02-09T21:03:12.448Z,-3.05
2023-02-09T21:05:41.236Z,-3.06
2023-02-09T21:08:09.380Z,-3.07
2023-02-09T21:10:38.575Z,-3.08
2023-02-09T21:13:07.673Z,-3.11
2023-02-09T21:15:39.409Z,-3.13
2023-02-09T21:18:07.681Z,-3.15
2023-02-09T21:20:37.153Z,-3.16
2023-02-09T21:23:05.376Z,-3.17
2023-02-09T21:25:33.815Z,-3.17
2023-02-09T21:28:02.153Z,-3.21
2023-02-09T21:30:31.607Z,-3.24
2023-02-09T21:33:00.462Z,-3.27
2023-02-09T21:35:28.685Z,-3.28
2023-02-09T21:37:56.797Z,-3.29
2023-02-09T21:40:26.126Z,-3.29
2023-02-09T21:42:55.359Z,-3.29
2023-02-09T21:45:23.804Z,-3.28
2023-02-09T21:47:52.379Z,-3.27
2023-02-09T21:50:22.201Z,-3.26
2023-02-09T21:52:50.856Z,-3.26
2023-02-09T21:55:19.171Z,-3.25
2023-02-09T21:57:47.567Z,-3.25
2023-02-09T22:00:16.049Z,-3.23
2023-02-09T22:02:48.117Z,-3.20
2023-02-09T22:05:17.490Z,-3.18
2023-02-09T22:07:49.021Z,-3.17
2023-02-09T22:10:20.156Z,-3.15
2023-02-09T22:12:49.876Z,-3.13
2023-02-09T22:15:19.199Z,-3.11
2023-02-09T22:17:48.395Z,-3.09
2023-02-09T22:20:18.419Z,-3.07
2023-02-09T22:22:47.039Z,-3.07
2023-02-09T22:25:16.290Z,-3.10
2023-02-09T22:27:44.726Z,-3.13
2023-02-09T22:30:13.542Z,-3.16
2023-02-09T22:32:43.089Z,-3.17
2023-02-09T22:35:11.633Z,-3.19
2023-02-09T22:37:40.398Z,-3.20
2023-02-09T22:40:10.385Z,-3.21
2023-02-09T22:42:40.299Z,-3.22
2023-02-09T22:45:10.103Z,-3.23
2023-02-09T22:47:41.729Z,-3.24
2023-02-09T22:50:12.374Z,-3.25
2023-02-09T22:52:42.461Z,-3.26
2023-02-09T22:55:13.129Z,-3.28
2023-02-09T22:57:44.477Z,-3.30
2023-02-09T23:00:15.659Z,-3.32
2023-02-09T23:02:47.175Z,-3.33
2023-02-09T23:05:20.217Z,-3.34
2023-02-09T23:07:52.178Z,-3.36
2023-02-09T23:10:23.682Z,-3.38
2023-02-09T23:12:59.060Z,-3.41
2023-02-09T23:15:30.183Z,-3.44
2023-02-09T23:18:01.200Z,-3.48
2023-02-09T23:20:33.151Z,-3.53
2023-02-09T23:23:09.862Z,-3.57
2023-02-09T23:25:41.139Z,-3.61
2023-02-09T23:28:12.280Z,-3.64
2023-02-09T23:30:45.086Z,-3.67
2023-02-09T23:33:15.776Z,-3.70
2023-02-09T23:35:45.731Z,-3.74
2023-02-09T23:38:18.040Z,-3.76
2023-02-09T23:48:56.556Z,-3.85
2023-02-09T23:51:30.529Z,-3.89
2023-02-09T23:54:00.021Z,-3.91
2023-02-09T23:56:30.128Z,-3.93
2023-02-09T23:58:58.212Z,-3.97
